Plaia De Esteiro — EAUV — position and weather

sailwx.info

Track history (hours):
 
Tides and Currents Weather Stations Pressure Air Temp Water Temp Dewpoint Dewpoint Depression Visibility Wind Speed Wind Dir Waves Ship Positions

Plaia De Esteiro

Last reported at 2018-Feb-16 16:49 UTC. Time now 2018-Feb-18 01:41 UTC.
Position N 43°23' W 001°57'.

Length 30 m.

Type: Ship. MMSI: 224050990.

Date/timePositionNaut miles runAvg speedWind from/ knotsBaromVisibWave heightAir tempDewpointWater temp
2018-Feb-16 16:49N 43°23' W 001°57'4 9.8
2018-Feb-16 16:23N 43°27' W 001°59'410.0
2018-Feb-16 16:00N 43°30' W 002°01'710.2
2018-Feb-16 15:16N 43°37' W 002°05'310.0
2018-Feb-16 14:59N 43°40' W 002°06'510.1
2018-Feb-16 14:30N 43°44' W 002°09'4 7.8
2018-Feb-16 14:00N 43°48' W 002°11'0 0.1
2018-Feb-16 13:30N 43°48' W 002°11'2 2.7
2018-Feb-16 12:47N 43°49' W 002°10'4 2.8
2018-Feb-16 11:28N 43°53' W 002°09'1 2.8
2018-Feb-16 10:56N 43°54' W 002°09'2 1.1
2018-Feb-16 09:10N 43°56' W 002°09'0 2.8
2018-Feb-16 09:00N 43°56' W 002°09'1 2.8
2018-Feb-16 08:30N 43°54' W 002°09'1 2.8
2018-Feb-16 08:00N 43°53' W 002°09'1 2.8
2018-Feb-16 07:30N 43°52' W 002°09'2 3.7
2018-Feb-16 07:00N 43°50' W 002°10'2 4.0
2018-Feb-16 06:30N 43°48' W 002°11'0 0.3
2018-Feb-16 06:00N 43°48' W 002°11'1 2.7
2018-Feb-16 05:29N 43°49' W 002°11'2 2.7
2018-Feb-16 04:53N 43°51' W 002°11'1 2.8
2018-Feb-16 04:28N 43°52' W 002°10'1 2.8
2018-Feb-16 04:00N 43°54' W 002°10'1 2.8
2018-Feb-16 03:28N 43°55' W 002°10'3 3.1
2018-Feb-16 02:27N 43°58' W 002°09'1 2.3
2018-Feb-16 01:58N 43°57' W 002°08'1 2.9
2018-Feb-16 01:30N 43°56' W 002°09'1 2.8
2018-Feb-16 01:00N 43°54' W 002°09'1 2.9
2018-Feb-16 00:29N 43°53' W 002°09'1 2.8
2018-Feb-16 00:00N 43°51' W 002°09'2 3.5
2018-Feb-15 23:30N 43°50' W 002°09'9 8.9
2018-Feb-15 22:32N 43°42' W 002°04'010.0
2018-Feb-15 22:30N 43°42' W 002°04'610.0
2018-Feb-15 21:56N 43°37' W 001°59'13 2.0
2018-Feb-15 15:36N 43°27' W 002°10'0 3.1
2018-Feb-15 15:28N 43°27' W 002°10'1 3.1
2018-Feb-15 15:00N 43°27' W 002°12'2 3.1
2018-Feb-15 14:30N 43°26' W 002°14'2 3.1
2018-Feb-15 14:00N 43°26' W 002°16'2 3.1
2018-Feb-15 13:30N 43°26' W 002°18'1 3.0
2018-Feb-15 13:00N 43°26' W 002°21'3 6.2
2018-Feb-15 12:30N 43°29' W 002°22'2 3.6
2018-Feb-15 12:01N 43°31' W 002°22'1 2.3
2018-Feb-15 11:30N 43°32' W 002°21'1 2.9
2018-Feb-15 11:00N 43°33' W 002°20'1 2.9
2018-Feb-15 10:30N 43°33' W 002°18'1 2.9
2018-Feb-15 10:00N 43°33' W 002°16'2 3.0
2018-Feb-15 09:30N 43°34' W 002°14'1 2.9
2018-Feb-15 09:00N 43°33' W 002°12'2 3.3
2018-Feb-15 08:30N 43°32' W 002°10'1 1.7
2018-Feb-15 08:00N 43°33' W 002°11'0 0.2
2018-Feb-15 07:30N 43°33' W 002°11'3 2.9
2018-Feb-15 06:20N 43°33' W 002°15'1 2.9
2018-Feb-15 06:00N 43°33' W 002°17'1 3.0
2018-Feb-15 05:30N 43°33' W 002°19'2 3.6
2018-Feb-15 05:01N 43°34' W 002°21'1 2.8
2018-Feb-15 04:30N 43°34' W 002°19'1 2.8
2018-Feb-15 04:00N 43°34' W 002°17'1 2.8
2018-Feb-15 03:30N 43°35' W 002°16'1 2.9
2018-Feb-15 03:00N 43°35' W 002°14'2 3.1
2018-Feb-15 02:30N 43°35' W 002°11'1 1.5
2018-Feb-15 01:56N 43°34' W 002°12'0 0.7
2018-Feb-15 01:17N 43°34' W 002°12'1 3.0
2018-Feb-15 01:00N 43°34' W 002°13'2 3.0
2018-Feb-15 00:29N 43°34' W 002°16'1 3.0
2018-Feb-15 00:00N 43°34' W 002°18'2 3.0
2018-Feb-14 23:30N 43°34' W 002°20'1 1.7
2018-Feb-14 23:00N 43°33' W 002°20'1 2.9
2018-Feb-14 22:30N 43°34' W 002°18'1 2.9
2018-Feb-14 22:00N 43°34' W 002°16'1 2.9
2018-Feb-14 21:30N 43°34' W 002°14'2 3.4
2018-Feb-14 21:00N 43°35' W 002°12'1 2.2
2018-Feb-14 20:25N 43°34' W 002°13'1 2.9
2018-Feb-14 20:00N 43°34' W 002°15'1 2.8
2018-Feb-14 19:30N 43°34' W 002°17'1 2.9
2018-Feb-14 19:00N 43°34' W 002°19'1 2.9
2018-Feb-14 18:30N 43°33' W 002°20'3 5.1
2018-Feb-14 18:00N 43°30' W 002°21'1 1.1
2018-Feb-14 17:30N 43°30' W 002°21'2 4.0
2018-Feb-14 17:00N 43°30' W 002°19'2 3.9
2018-Feb-14 16:30N 43°30' W 002°16'2 3.9
2018-Feb-14 16:01N 43°31' W 002°13'2 4.0
2018-Feb-14 15:29N 43°31' W 002°10'0 0.6
2018-Feb-14 15:00N 43°31' W 002°10'2 4.4
2018-Feb-14 14:30N 43°30' W 002°07'2 3.8
2018-Feb-14 14:00N 43°29' W 002°05'2 3.4
2018-Feb-14 13:27N 43°28' W 002°08'1 2.8
2018-Feb-14 12:59N 43°29' W 002°09'1 1.8
2018-Feb-14 12:30N 43°29' W 002°10'2 3.1
2018-Feb-14 12:00N 43°29' W 002°12'2 3.1
2018-Feb-14 11:29N 43°29' W 002°14'2 3.1
2018-Feb-14 10:59N 43°28' W 002°16'1 3.0
2018-Feb-14 10:31N 43°28' W 002°18'2 3.0
2018-Feb-14 10:00N 43°28' W 002°20'1 3.0
2018-Feb-14 09:31N 43°28' W 002°23'3 6.2
2018-Feb-14 09:00N 43°29' W 002°27'510.3
2018-Feb-14 08:31N 43°30' W 002°33'510.5
2018-Feb-14 08:00N 43°32' W 002°40'610.0
2018-Feb-14 07:27N 43°32' W 002°48'510.1
2018-Feb-14 07:00N 43°32' W 002°54'510.1
2018-Feb-14 06:30N 43°32' W 003°01'115 9.9
2018-Feb-13 18:52N 43°34' W 005°41'1 1.6
2018-Feb-13 18:16N 43°33' W 005°42'0 0.0
2018-Feb-13 18:00N 43°33' W 005°42'0 0.2
2018-Feb-13 17:30N 43°33' W 005°42'6 9.1
2018-Feb-13 16:54N 43°35' W 005°35'5 9.1
2018-Feb-13 16:18N 43°37' W 005°27'  
Track history (hours):
 
Tides and Currents Weather Stations Pressure Air Temp Water Temp Dewpoint Dewpoint Depression Visibility Wind Speed Wind Dir Waves Ship Positions

Plaia De Esteiro

Last reported at 2018-Feb-16 16:49 UTC. Time now 2018-Feb-18 01:41 UTC.
Position N 43°23' W 001°57'.

Length 30 m.

Type: Ship. MMSI: 224050990.

Date/timePositionNaut miles runAvg speedWind from/ knotsBaromVisibWave heightAir tempDewpointWater temp
2018-Feb-16 16:49N 43°23' W 001°57'4 9.8
2018-Feb-16 16:23N 43°27' W 001°59'410.0
2018-Feb-16 16:00N 43°30' W 002°01'710.2
2018-Feb-16 15:16N 43°37' W 002°05'310.0
2018-Feb-16 14:59N 43°40' W 002°06'510.1
2018-Feb-16 14:30N 43°44' W 002°09'4 7.8
2018-Feb-16 14:00N 43°48' W 002°11'0 0.1
2018-Feb-16 13:30N 43°48' W 002°11'2 2.7
2018-Feb-16 12:47N 43°49' W 002°10'4 2.8
2018-Feb-16 11:28N 43°53' W 002°09'1 2.8
2018-Feb-16 10:56N 43°54' W 002°09'2 1.1
2018-Feb-16 09:10N 43°56' W 002°09'0 2.8
2018-Feb-16 09:00N 43°56' W 002°09'1 2.8
2018-Feb-16 08:30N 43°54' W 002°09'1 2.8
2018-Feb-16 08:00N 43°53' W 002°09'1 2.8
2018-Feb-16 07:30N 43°52' W 002°09'2 3.7
2018-Feb-16 07:00N 43°50' W 002°10'2 4.0
2018-Feb-16 06:30N 43°48' W 002°11'0 0.3
2018-Feb-16 06:00N 43°48' W 002°11'1 2.7
2018-Feb-16 05:29N 43°49' W 002°11'2 2.7
2018-Feb-16 04:53N 43°51' W 002°11'1 2.8
2018-Feb-16 04:28N 43°52' W 002°10'1 2.8
2018-Feb-16 04:00N 43°54' W 002°10'1 2.8
2018-Feb-16 03:28N 43°55' W 002°10'3 3.1
2018-Feb-16 02:27N 43°58' W 002°09'1 2.3
2018-Feb-16 01:58N 43°57' W 002°08'1 2.9
2018-Feb-16 01:30N 43°56' W 002°09'1 2.8
2018-Feb-16 01:00N 43°54' W 002°09'1 2.9
2018-Feb-16 00:29N 43°53' W 002°09'1 2.8
2018-Feb-16 00:00N 43°51' W 002°09'2 3.5
2018-Feb-15 23:30N 43°50' W 002°09'9 8.9
2018-Feb-15 22:32N 43°42' W 002°04'010.0
2018-Feb-15 22:30N 43°42' W 002°04'610.0
2018-Feb-15 21:56N 43°37' W 001°59'13 2.0
2018-Feb-15 15:36N 43°27' W 002°10'0 3.1
2018-Feb-15 15:28N 43°27' W 002°10'1 3.1
2018-Feb-15 15:00N 43°27' W 002°12'2 3.1
2018-Feb-15 14:30N 43°26' W 002°14'2 3.1
2018-Feb-15 14:00N 43°26' W 002°16'2 3.1
2018-Feb-15 13:30N 43°26' W 002°18'1 3.0
2018-Feb-15 13:00N 43°26' W 002°21'3 6.2
2018-Feb-15 12:30N 43°29' W 002°22'2 3.6
2018-Feb-15 12:01N 43°31' W 002°22'1 2.3
2018-Feb-15 11:30N 43°32' W 002°21'1 2.9
2018-Feb-15 11:00N 43°33' W 002°20'1 2.9
2018-Feb-15 10:30N 43°33' W 002°18'1 2.9
2018-Feb-15 10:00N 43°33' W 002°16'2 3.0
2018-Feb-15 09:30N 43°34' W 002°14'1 2.9
2018-Feb-15 09:00N 43°33' W 002°12'2 3.3
2018-Feb-15 08:30N 43°32' W 002°10'1 1.7
2018-Feb-15 08:00N 43°33' W 002°11'0 0.2
2018-Feb-15 07:30N 43°33' W 002°11'3 2.9
2018-Feb-15 06:20N 43°33' W 002°15'1 2.9
2018-Feb-15 06:00N 43°33' W 002°17'1 3.0
2018-Feb-15 05:30N 43°33' W 002°19'2 3.6
2018-Feb-15 05:01N 43°34' W 002°21'1 2.8
2018-Feb-15 04:30N 43°34' W 002°19'1 2.8
2018-Feb-15 04:00N 43°34' W 002°17'1 2.8
2018-Feb-15 03:30N 43°35' W 002°16'1 2.9
2018-Feb-15 03:00N 43°35' W 002°14'2 3.1
2018-Feb-15 02:30N 43°35' W 002°11'1 1.5
2018-Feb-15 01:56N 43°34' W 002°12'0 0.7
2018-Feb-15 01:17N 43°34' W 002°12'1 3.0
2018-Feb-15 01:00N 43°34' W 002°13'2 3.0
2018-Feb-15 00:29N 43°34' W 002°16'1 3.0
2018-Feb-15 00:00N 43°34' W 002°18'2 3.0
2018-Feb-14 23:30N 43°34' W 002°20'1 1.7
2018-Feb-14 23:00N 43°33' W 002°20'1 2.9
2018-Feb-14 22:30N 43°34' W 002°18'1 2.9
2018-Feb-14 22:00N 43°34' W 002°16'1 2.9
2018-Feb-14 21:30N 43°34' W 002°14'2 3.4
2018-Feb-14 21:00N 43°35' W 002°12'1 2.2
2018-Feb-14 20:25N 43°34' W 002°13'1 2.9
2018-Feb-14 20:00N 43°34' W 002°15'1 2.8
2018-Feb-14 19:30N 43°34' W 002°17'1 2.9
2018-Feb-14 19:00N 43°34' W 002°19'1 2.9
2018-Feb-14 18:30N 43°33' W 002°20'3 5.1
2018-Feb-14 18:00N 43°30' W 002°21'1 1.1
2018-Feb-14 17:30N 43°30' W 002°21'2 4.0
2018-Feb-14 17:00N 43°30' W 002°19'2 3.9
2018-Feb-14 16:30N 43°30' W 002°16'2 3.9
2018-Feb-14 16:01N 43°31' W 002°13'2 4.0
2018-Feb-14 15:29N 43°31' W 002°10'0 0.6
2018-Feb-14 15:00N 43°31' W 002°10'2 4.4
2018-Feb-14 14:30N 43°30' W 002°07'2 3.8
2018-Feb-14 14:00N 43°29' W 002°05'2 3.4
2018-Feb-14 13:27N 43°28' W 002°08'1 2.8
2018-Feb-14 12:59N 43°29' W 002°09'1 1.8
2018-Feb-14 12:30N 43°29' W 002°10'2 3.1
2018-Feb-14 12:00N 43°29' W 002°12'2 3.1
2018-Feb-14 11:29N 43°29' W 002°14'2 3.1
2018-Feb-14 10:59N 43°28' W 002°16'1 3.0
2018-Feb-14 10:31N 43°28' W 002°18'2 3.0
2018-Feb-14 10:00N 43°28' W 002°20'1 3.0
2018-Feb-14 09:31N 43°28' W 002°23'3 6.2
2018-Feb-14 09:00N 43°29' W 002°27'510.3
2018-Feb-14 08:31N 43°30' W 002°33'510.5
2018-Feb-14 08:00N 43°32' W 002°40'610.0
2018-Feb-14 07:27N 43°32' W 002°48'510.1
2018-Feb-14 07:00N 43°32' W 002°54'510.1
2018-Feb-14 06:30N 43°32' W 003°01'115 9.9
2018-Feb-13 18:52N 43°34' W 005°41'1 1.6
2018-Feb-13 18:16N 43°33' W 005°42'0 0.0
2018-Feb-13 18:00N 43°33' W 005°42'0 0.2
2018-Feb-13 17:30N 43°33' W 005°42'6 9.1
2018-Feb-13 16:54N 43°35' W 005°35'5 9.1
2018-Feb-13 16:18N 43°37' W 005°27'  

Dump ship's entire track history